Latest Weather Observations for Normanton

IDQ60801

Issued at 11:02 am EST Sunday 29 March 2015 (issued every 30 minutes, with the page automatically refreshed every 10 minutes)

About weather observations | Map of weather stations | Latest weather observations for QLD | Other Formats
Station Details ID: 029063 Name: NORMANTON AIRPORT Lat: -17.69 Lon: 141.07 Height: 18.42 m
Data from the previous 72 hours. | See also: Recent months at Normanton
Date/Time
EST
Temp
°C
App
Temp
°C
Dew
Point
Rel
Hum
%
Delta-T
°C
Wind Press
QNH
hPa
Press
MSL
hPa
Rain
since 9 am
mm
Dir
 
Spd
km/h
Gust
km/h
Spd
kts
Gust
kts
29/11:00am 32.9 33.1 15.8 35 10.7 E 9 20 5 11 1015.4 - 0.0
29/10:30am 32.0 33.7 19.3 47 8.3 ENE 9 15 5 8 1015.5 - 0.0
29/10:00am 31.5 32.9 21.1 54 7.0 NE 15 22 8 12 1015.8 - 0.0
29/09:30am 31.3 33.6 22.0 57 6.3 NE 13 20 7 11 1015.8 - 0.0
29/09:00am 30.5 34.6 23.9 68 4.6 NE 9 13 5 7 1015.8 1015.6 0.0
29/08:30am 29.4 33.7 23.6 71 4.0 NNE 7 13 4 7 1015.6 - 0.0
29/08:00am 27.9 32.1 23.5 77 3.0 NE 7 11 4 6 1015.4 - 0.0
29/07:30am 26.7 31.2 24.0 85 1.9 NE 7 11 4 6 1015.3 - 0.0
29/07:00am 25.6 29.9 24.2 92 1.0 ENE 9 13 5 7 1014.7 - 0.0
29/06:30am 25.4 29.7 24.2 93 0.8 NE 9 13 5 7 1014.3 - 0.0
29/06:00am 25.8 30.1 24.2 91 1.1 NNE 9 13 5 7 1013.8 1013.5 0.0
29/05:30am 25.9 30.3 24.5 92 1.0 NE 9 15 5 8 1013.5 - 0.0
29/05:00am 25.9 30.6 25.0 95 0.6 NE 9 15 5 8 1013.2 - 0.0
29/04:30am 25.4 30.4 25.4 100 0.0 NE 9 13 5 7 1012.9 - 0.0
29/04:00am 25.2 30.1 25.2 100 0.0 ENE 9 11 5 6 1012.6 - 0.0
29/03:30am 25.3 30.2 25.3 100 0.0 ESE 9 11 5 6 1012.4 - 0.0
29/03:00am 25.7 30.9 25.7 100 0.0 SE 9 11 5 6 1012.3 1011.9 0.0
29/02:30am 25.8 31.4 25.8 100 0.0 SE 7 13 4 7 1012.1 - 0.0
29/02:00am 25.8 32.3 25.6 99 0.1 E 2 13 1 7 1012.1 - 0.0
29/01:30am 26.4 31.6 25.7 96 0.5 W 9 11 5 6 1012.0 - 0.0
29/01:00am 26.5 31.4 25.3 93 0.8 W 9 11 5 6 1012.1 - 0.0
29/12:30am 27.0 32.1 25.0 89 1.4 W 7 9 4 5 1012.3 - 0.0
29/12:00am 27.4 32.5 25.0 87 1.7 NW 7 7 4 4 1012.4 1012.3 0.0
 
Date/Time
EST
Temp
°C
App
Temp
°C
Dew
Point
Rel
Hum
%
Delta-T
°C
Wind Press
QNH
hPa
Press
MSL
hPa
Rain
since 9 am
mm
Dir
 
Spd
km/h
Gust
km/h
Spd
kts
Gust
kts
28/11:30pm 27.5 32.6 24.9 86 1.8 WNW 7 9 4 5 1012.7 - 0.0
28/11:00pm 27.8 32.5 25.0 85 2.0 WNW 9 11 5 6 1012.9 - 0.0
28/10:30pm 27.8 32.3 24.6 83 2.2 NW 9 9 5 5 1013.2 - 0.0
28/10:00pm 28.2 33.1 24.6 81 2.5 NNW 7 11 4 6 1013.1 - 0.0
28/09:30pm 28.6 32.6 24.4 78 2.9 NW 11 13 6 7 1013.2 - 0.0
28/09:00pm 28.8 32.9 23.9 75 3.4 NNW 9 11 5 6 1012.8 1012.6 0.0
28/08:30pm 29.0 33.0 23.7 73 3.7 NW 9 13 5 7 1012.7 - 0.0
28/08:00pm 29.4 32.3 23.1 69 4.3 WNW 13 17 7 9 1012.4 - 0.0
28/07:30pm 29.9 32.5 22.6 65 5.0 WNW 13 17 7 9 1012.0 - 0.0
28/07:00pm 30.5 32.3 21.8 59 5.9 WNW 15 19 8 10 1011.4 - 0.0
28/06:30pm 31.3 32.9 21.5 56 6.6 WNW 15 22 8 12 1011.2 - 0.0
28/06:00pm 32.2 33.2 21.1 52 7.5 WNW 17 24 9 13 1010.9 1010.7 0.0
28/05:30pm 32.7 33.2 21.2 50 7.7 NW 20 26 11 14 1010.8 - 0.0
28/05:00pm 33.3 33.0 21.1 48 8.2 NW 24 30 13 16 1010.1 - 0.0
28/04:30pm 35.2 37.7 21.1 43 9.5 WNW 9 17 5 9 1009.9 - 0.0
28/04:00pm 35.2 37.0 21.1 43 9.5 WNW 13 20 7 11 1010.0 - 0.0
28/03:30pm 35.1 36.3 20.6 42 9.8 NNW 15 24 8 13 1010.4 - 0.0
28/03:00pm 33.9 34.3 21.0 47 8.7 NW 20 26 11 14 1010.7 1010.5 0.0
28/02:30pm 35.0 37.7 19.4 40 10.3 SSE 4 9 2 5 1011.0 - 0.0
28/02:00pm 34.9 37.1 19.7 41 10.1 NNW 7 15 4 8 1011.4 - 0.0
28/01:30pm 33.7 35.2 19.0 42 9.6 NE 9 13 5 7 1012.0 - 0.0
28/01:00pm 34.1 36.0 20.5 45 9.1 N 11 19 6 10 1012.5 - 0.0
28/12:30pm 32.9 35.5 20.4 47 8.3 N 7 17 4 9 1013.1 - 0.0
28/12:00pm 32.7 35.5 20.9 49 7.9 NNW 7 13 4 7 1013.8 1013.7 0.0
28/11:30am 33.0 35.5 22.4 53 7.3 N 13 17 7 9 1014.2 - 0.0
28/11:00am 32.3 34.6 22.1 55 6.9 N 13 20 7 11 1014.8 - 0.0
28/10:30am 31.2 32.9 21.7 57 6.4 N 15 20 8 11 1015.0 - 0.0
28/10:00am 31.0 33.5 23.1 63 5.4 N 15 24 8 13 1015.1 - 0.0
28/09:30am 30.3 32.7 23.0 65 5.0 N 15 20 8 11 1015.1 - 0.0
28/09:00am 29.3 31.2 23.5 71 4.0 NNE 19 24 10 13 1014.9 1014.7 3.0
28/08:30am 28.8 31.5 24.1 76 3.3 NNE 17 30 9 16 1014.5 - 3.0
28/08:00am 27.7 31.9 25.3 87 1.7 NNE 13 19 7 10 1014.1 - 3.0
28/07:30am 27.5 32.3 25.7 90 1.3 NNE 11 15 6 8 1013.6 - 3.0
28/07:00am 26.9 32.7 26.6 98 0.2 NNE 9 15 5 8 1013.2 - 3.0
28/06:30am 27.0 33.2 26.7 98 0.2 NNE 7 13 4 7 1012.9 - 3.0
28/06:00am 27.1 32.9 26.6 97 0.4 N 9 13 5 7 1012.8 1012.5 3.0
28/05:30am 26.9 32.8 26.7 99 0.1 N 9 13 5 7 1012.6 - 3.0
28/05:00am 26.9 32.9 26.4 97 0.4 NE 7 11 4 6 1012.3 - 3.0
28/04:30am 27.5 34.0 26.8 96 0.5 N 6 7 3 4 1012.1 - 3.0
28/04:00am 27.5 33.9 26.6 95 0.6 N 6 7 3 4 1011.9 - 3.0
28/03:30am 27.4 33.3 26.7 96 0.5 NNE 9 13 5 7 1011.8 - 3.0
28/03:00am 27.3 34.0 26.6 96 0.5 SW 4 6 2 3 1011.7 1011.5 3.0
28/02:30am 27.3 33.8 26.8 97 0.4 SW 6 7 3 4 1011.7 - 3.0
28/02:00am 27.3 33.4 27.0 98 0.2 S 9 11 5 6 1012.1 - 3.0
28/01:30am 27.1 34.9 27.1 100 0.0 CALM 0 0 0 0 1012.2 - 3.0
28/01:00am 27.3 33.3 26.4 95 0.6 SW 7 11 4 6 1012.4 - 3.0
28/12:30am 27.7 33.4 26.5 93 0.9 WNW 9 11 5 6 1012.2 - 3.0
28/12:00am 27.6 33.8 26.7 95 0.6 WNW 7 9 4 5 1012.4 1012.2 3.0
 
Date/Time
EST
Temp
°C
App
Temp
°C
Dew
Point
Rel
Hum
%
Delta-T
°C
Wind Press
QNH
hPa
Press
MSL
hPa
Rain
since 9 am
mm
Dir
 
Spd
km/h
Gust
km/h
Spd
kts
Gust
kts
27/11:30pm 27.8 33.6 26.6 93 0.9 NW 9 11 5 6 1012.6 - 3.0
27/11:00pm 27.8 33.5 26.4 92 1.0 WNW 9 11 5 6 1012.9 - 3.0
27/10:30pm 28.1 34.0 26.7 92 1.0 NNW 9 11 5 6 1013.1 - 3.0
27/10:00pm 28.4 34.2 26.6 90 1.3 NNW 9 11 5 6 1013.1 - 3.0
27/09:30pm 28.3 33.0 26.1 88 1.6 NNW 13 15 7 8 1013.0 - 3.0
27/09:00pm 28.5 33.5 26.5 89 1.4 N 13 17 7 9 1013.0 1012.7 3.0
27/08:30pm 28.4 34.2 27.2 93 0.9 N 11 15 6 8 1012.7 - 3.0
27/08:00pm 28.2 34.4 26.6 91 1.1 N 7 13 4 7 1012.2 - 3.0
27/07:30pm 28.3 33.6 25.3 84 2.1 WNW 7 9 4 5 1012.0 - 3.0
27/07:00pm 28.2 32.6 25.0 83 2.2 NW 11 15 6 8 1011.5 - 3.0
27/06:30pm 28.5 32.3 25.3 83 2.3 NW 15 19 8 10 1011.5 - 3.0
27/06:00pm 32.2 34.5 23.4 59 6.1 W 17 20 9 11 1011.3 1010.6 0.0
27/05:30pm 32.5 34.2 23.4 58 6.3 NW 20 24 11 13 1010.7 - 0.0
27/05:00pm 34.3 36.5 24.2 55 7.1 W 20 28 11 15 1010.4 - 0.0
27/04:30pm 33.4 35.1 23.1 54 7.1 NNW 19 24 10 13 1010.4 - 0.0
27/04:00pm 34.3 36.3 23.0 51 7.8 NNW 17 24 9 13 1010.5 - 0.0
27/03:30pm 34.5 36.7 22.6 50 8.2 NW 15 24 8 13 1010.7 - 0.0
27/03:00pm 34.0 35.5 22.7 51 7.8 NNW 19 24 10 13 1011.1 1011.0 0.0
27/02:30pm 34.1 35.1 22.2 50 8.1 NNW 20 28 11 15 1011.5 - 0.0
27/02:00pm 34.8 36.2 22.5 48 8.5 N 19 30 10 16 1011.9 - 0.0
27/01:30pm 34.8 37.2 21.5 46 9.0 NNW 11 24 6 13 1012.3 - 0.0
27/01:00pm 34.7 37.4 21.4 46 9.0 NNE 9 15 5 8 1013.0 - 0.0
27/12:30pm 33.7 36.7 21.2 48 8.4 N 7 15 4 8 1013.3 - 0.0
27/12:00pm 33.4 35.1 20.9 48 8.4 NNE 13 17 7 9 1013.9 1013.7 0.0
27/11:30am 32.9 34.9 20.8 49 8.1 N 11 17 6 9 1014.2 - 0.0
27/11:00am 32.8 34.6 20.3 47 8.3 ENE 11 17 6 9 1014.7 - 0.0
27/10:30am 32.2 31.4 13.9 33 11.1 SE 11 15 6 8 1015.1 - 0.0
27/10:00am 31.3 28.3 7.7 23 12.9 SSE 13 17 7 9 1015.4 - 0.0
27/09:30am 30.6 26.8 7.7 24 12.5 SSE 17 22 9 12 1015.4 - 0.0
27/09:00am 29.5 25.8 8.0 26 11.7 SSE 17 22 9 12 1015.2 1015.0 0.0
27/08:30am 28.6 25.2 7.8 27 11.3 SSE 15 20 8 11 1015.0 - 0.0
27/08:00am 27.0 25.3 11.1 37 9.0 SSE 11 13 6 7 1014.7 - 0.0
27/07:30am 25.1 23.6 12.0 44 7.5 SSE 11 13 6 7 1014.5 - 0.0
27/07:00am 24.5 23.4 11.8 45 7.2 SSE 9 11 5 6 1014.4 - 0.0
27/06:30am 24.7 24.1 13.6 50 6.5 SSE 9 11 5 6 1014.2 - 0.0
27/06:00am 24.3 24.8 15.0 56 5.6 ESE 6 9 3 5 1014.3 1014.1 0.0
27/05:30am 24.7 24.4 13.3 49 6.6 E 7 9 4 5 1014.0 - 0.0
27/05:00am 25.5 24.1 9.7 37 8.7 E 7 11 4 6 1013.6 - 0.0
27/04:30am 27.8 24.8 6.0 25 11.4 ESE 11 17 6 9 1013.5 - 0.0
27/04:00am 28.6 24.3 7.2 26 11.5 SSE 19 26 10 14 1013.1 - 0.0
27/03:30am 29.0 24.4 8.1 27 11.4 S 22 28 12 15 1013.1 - 0.0
27/03:00am 28.6 26.0 10.8 33 10.1 SSE 15 24 8 13 1013.3 1013.1 0.0
27/02:30am 28.1 25.6 13.6 41 8.6 S 19 22 10 12 1013.4 - 0.0
27/02:00am 27.9 29.1 18.3 56 6.1 SW 9 13 5 7 1013.7 - 0.0
27/01:30am 28.1 31.2 21.4 67 4.5 W 7 9 4 5 1013.9 - 0.0
27/01:00am 28.1 30.4 21.4 67 4.5 WSW 11 13 6 7 1014.0 - 0.0
27/12:30am 28.3 31.1 21.6 67 4.5 W 9 13 5 7 1014.3 - 0.0
27/12:00am 28.8 30.8 20.8 62 5.3 NW 11 13 6 7 1014.5 1014.2 0.0
 
Date/Time
EST
Temp
°C
App
Temp
°C
Dew
Point
Rel
Hum
%
Delta-T
°C
Wind Press
QNH
hPa
Press
MSL
hPa
Rain
since 9 am
mm
Dir
 
Spd
km/h
Gust
km/h
Spd
kts
Gust
kts
26/11:30pm 29.3 30.4 19.6 56 6.3 N 13 17 7 9 1014.4 - 0.0
26/11:00pm 30.1 31.8 18.5 49 7.5 NNE 7 11 4 6 1014.2 - 0.0
26/10:30pm 29.8 31.5 18.6 51 7.2 NE 7 11 4 6 1014.3 - 0.0
26/10:00pm 29.6 32.5 19.9 56 6.4 E 4 6 2 3 1014.3 - 0.0
26/09:30pm 30.3 31.3 16.3 42 8.7 SE 6 7 3 4 1014.1 - 0.0
26/09:00pm 30.1 31.9 18.2 49 7.6 S 6 7 3 4 1013.6 1013.4 0.0
26/08:30pm 30.7 31.5 17.4 45 8.5 S 9 11 5 6 1013.3 - 0.0
26/08:00pm 30.9 31.8 17.6 45 8.5 S 9 11 5 6 1013.0 - 0.0
26/07:30pm 32.5 31.9 14.6 34 11.0 SSE 11 17 6 9 1012.4 - 0.0
26/07:00pm 31.7 32.6 16.0 38 9.8 SE 6 6 3 3 1012.0 - 0.0
26/06:30pm 32.2 33.6 17.3 41 9.5 SE 6 7 3 4 1011.5 - 0.0
26/06:00pm 33.0 33.3 14.6 33 11.3 ESE 6 7 3 4 1011.4 1011.2 0.0
26/05:30pm 33.5 33.5 13.5 29 12.1 ESE 6 9 3 5 1011.4 - 0.0
26/05:00pm 33.8 33.1 13.3 29 12.4 ESE 9 13 5 7 1011.4 - 0.0
26/04:30pm 34.1 33.1 12.4 26 13.0 ESE 9 13 5 7 1011.4 - 0.0
26/04:00pm 34.2 32.9 12.5 27 13.0 ESE 11 19 6 10 1011.4 - 0.0
26/03:30pm 35.1 33.9 12.7 26 13.5 ESE 11 17 6 9 1011.5 - 0.0
26/03:00pm 35.7 35.2 10.7 22 14.7 NE 4 13 2 7 1011.6 1011.5 0.0
26/02:30pm 34.8 32.9 10.6 23 14.1 SE 11 19 6 10 1012.0 - 0.0
26/02:00pm 35.4 32.7 10.4 22 14.6 SSE 15 24 8 13 1012.4 - 0.0
26/01:30pm 35.8 33.6 12.1 24 14.2 S 15 24 8 13 1012.9 - 0.0
26/01:00pm 35.0 33.0 11.4 24 13.9 SSE 13 24 7 13 1013.4 - 0.0
26/12:30pm 34.1 32.4 12.4 26 13.0 SSE 13 19 7 10 1013.9 - 0.0
26/12:00pm 33.3 30.6 11.8 27 12.7 SSE 17 26 9 14 1014.5 1014.3 0.0
26/11:30am 33.4 30.4 12.4 28 12.5 SSE 20 28 11 15 1014.8 - 0.0

Other Formats:

Comma delimited format used in spreadsheet applications
http://www.bom.gov.au/fwo/IDQ60801/IDQ60801.94266.axf

JavaScript Object Notation format (JSON) in row-major order
http://www.bom.gov.au/fwo/IDQ60801/IDQ60801.94266.json